sensor_id;sensor_type;location;lat;lon;timestamp;pressure;altitude;pressure_sealevel;temperature;humidity
6393;BME280;3229;42.674;23.282;2023-04-16T00:01:27;94112.84;;;15.89;41.99
6393;BME280;3229;42.674;23.282;2023-04-16T00:03:54;94113.41;;;15.85;42.07
6393;BME280;3229;42.674;23.282;2023-04-16T00:06:21;94106.19;;;15.80;42.13
6393;BME280;3229;42.674;23.282;2023-04-16T00:08:48;94108.19;;;15.78;41.97
6393;BME280;3229;42.674;23.282;2023-04-16T00:11:17;94105.16;;;15.74;42.12
6393;BME280;3229;42.674;23.282;2023-04-16T00:13:44;94100.13;;;15.66;42.21
6393;BME280;3229;42.674;23.282;2023-04-16T00:16:11;94108.66;;;15.67;42.24
6393;BME280;3229;42.674;23.282;2023-04-16T00:18:37;94103.84;;;15.64;42.15
6393;BME280;3229;42.674;23.282;2023-04-16T00:21:05;94111.31;;;15.59;42.37
6393;BME280;3229;42.674;23.282;2023-04-16T00:23:32;94091.78;;;15.49;42.39
6393;BME280;3229;42.674;23.282;2023-04-16T00:25:59;94108.31;;;15.55;42.29
6393;BME280;3229;42.674;23.282;2023-04-16T00:28:27;94081.97;;;15.38;42.34
6393;BME280;3229;42.674;23.282;2023-04-16T00:30:54;94108.44;;;15.47;42.42
6393;BME280;3229;42.674;23.282;2023-04-16T00:33:21;94103.81;;;15.42;42.51
6393;BME280;3229;42.674;23.282;2023-04-16T00:35:48;94106.75;;;15.39;42.43
6393;BME280;3229;42.674;23.282;2023-04-16T00:38:14;94103.56;;;15.37;42.35
6393;BME280;3229;42.674;23.282;2023-04-16T00:40:41;94102.50;;;15.31;42.40
6393;BME280;3229;42.674;23.282;2023-04-16T00:43:08;94104.47;;;15.29;42.47
6393;BME280;3229;42.674;23.282;2023-04-16T00:45:36;94101.00;;;15.22;42.59
6393;BME280;3229;42.674;23.282;2023-04-16T00:48:04;94101.81;;;15.23;42.79
6393;BME280;3229;42.674;23.282;2023-04-16T00:50:32;94091.34;;;15.10;42.22
6393;BME280;3229;42.674;23.282;2023-04-16T00:52:59;94098.19;;;15.17;42.70
6393;BME280;3229;42.674;23.282;2023-04-16T00:55:27;94098.72;;;15.13;42.86
6393;BME280;3229;42.674;23.282;2023-04-16T00:57:54;94096.34;;;15.11;43.03
6393;BME280;3229;42.674;23.282;2023-04-16T01:00:21;94101.84;;;15.08;42.93
6393;BME280;3229;42.674;23.282;2023-04-16T01:02:49;94095.25;;;15.05;42.86
6393;BME280;3229;42.674;23.282;2023-04-16T01:05:16;94092.25;;;15.02;42.88
6393;BME280;3229;42.674;23.282;2023-04-16T01:07:43;94096.97;;;14.98;42.87
6393;BME280;3229;42.674;23.282;2023-04-16T01:10:10;94092.19;;;14.95;43.12
6393;BME280;3229;42.674;23.282;2023-04-16T01:12:36;94091.53;;;14.93;43.09
6393;BME280;3229;42.674;23.282;2023-04-16T01:15:04;94094.50;;;14.90;43.23
6393;BME280;3229;42.674;23.282;2023-04-16T01:17:31;94092.25;;;14.87;43.35
6393;BME280;3229;42.674;23.282;2023-04-16T01:19:59;94087.47;;;14.84;43.45
6393;BME280;3229;42.674;23.282;2023-04-16T01:22:27;94081.72;;;14.82;43.57
6393;BME280;3229;42.674;23.282;2023-04-16T01:24:55;94088.00;;;14.79;43.55
6393;BME280;3229;42.674;23.282;2023-04-16T01:27:21;94098.84;;;14.75;43.66
6393;BME280;3229;42.674;23.282;2023-04-16T01:29:48;94088.72;;;14.73;43.65
6393;BME280;3229;42.674;23.282;2023-04-16T01:32:15;94073.28;;;14.59;44.03
6393;BME280;3229;42.674;23.282;2023-04-16T01:34:42;94089.25;;;14.69;43.94
6393;BME280;3229;42.674;23.282;2023-04-16T01:37:09;94092.78;;;14.68;44.11
6393;BME280;3229;42.674;23.282;2023-04-16T01:39:38;94085.44;;;14.65;44.05
6393;BME280;3229;42.674;23.282;2023-04-16T01:42:04;94074.69;;;14.61;44.20
6393;BME280;3229;42.674;23.282;2023-04-16T01:44:31;94075.50;;;14.62;44.17
6393;BME280;3229;42.674;23.282;2023-04-16T01:46:58;94073.91;;;14.61;44.15
6393;BME280;3229;42.674;23.282;2023-04-16T01:49:25;94071.50;;;14.59;44.33
6393;BME280;3229;42.674;23.282;2023-04-16T01:51:52;94003.59;;;14.16;44.35
6393;BME280;3229;42.674;23.282;2023-04-16T01:54:19;94063.16;;;14.57;44.38
6393;BME280;3229;42.674;23.282;2023-04-16T01:56:47;94063.16;;;14.57;44.51
6393;BME280;3229;42.674;23.282;2023-04-16T01:59:13;94068.31;;;14.57;44.51
6393;BME280;3229;42.674;23.282;2023-04-16T02:01:41;94063.97;;;14.58;44.69
6393;BME280;3229;42.674;23.282;2023-04-16T02:04:08;94059.97;;;14.55;44.48
6393;BME280;3229;42.674;23.282;2023-04-16T02:06:35;94055.63;;;14.55;44.58
6393;BME280;3229;42.674;23.282;2023-04-16T02:09:02;94063.34;;;14.55;44.69
6393;BME280;3229;42.674;23.282;2023-04-16T02:11:29;94062.09;;;14.51;44.62
6393;BME280;3229;42.674;23.282;2023-04-16T02:13:57;94073.66;;;14.55;44.88
6393;BME280;3229;42.674;23.282;2023-04-16T02:16:24;94071.22;;;14.54;44.73
6393;BME280;3229;42.674;23.282;2023-04-16T02:18:51;94049.63;;;14.40;44.71
6393;BME280;3229;42.674;23.282;2023-04-16T02:21:18;94057.56;;;14.53;44.66
6393;BME280;3229;42.674;23.282;2023-04-16T02:23:46;94060.94;;;14.54;44.74
6393;BME280;3229;42.674;23.282;2023-04-16T02:26:15;94058.91;;;14.49;44.74
6393;BME280;3229;42.674;23.282;2023-04-16T02:28:42;94063.88;;;14.51;44.83
6393;BME280;3229;42.674;23.282;2023-04-16T02:31:10;94059.53;;;14.51;44.85
6393;BME280;3229;42.674;23.282;2023-04-16T02:33:37;94060.31;;;14.52;44.85
6393;BME280;3229;42.674;23.282;2023-04-16T02:36:05;94059.88;;;14.48;44.89
6393;BME280;3229;42.674;23.282;2023-04-16T02:38:32;94062.91;;;14.52;45.15
6393;BME280;3229;42.674;23.282;2023-04-16T02:40:58;94056.97;;;14.51;45.16
6393;BME280;3229;42.674;23.282;2023-04-16T02:43:25;94056.78;;;14.53;45.24
6393;BME280;3229;42.674;23.282;2023-04-16T02:45:52;94055.19;;;14.52;45.24
6393;BME280;3229;42.674;23.282;2023-04-16T02:48:20;94050.84;;;14.52;45.13
6393;BME280;3229;42.674;23.282;2023-04-16T02:50:47;93991.72;;;14.15;45.07
6393;BME280;3229;42.674;23.282;2023-04-16T02:53:14;94044.44;;;14.48;45.21
6393;BME280;3229;42.674;23.282;2023-04-16T02:55:40;94046.81;;;14.50;45.19
6393;BME280;3229;42.674;23.282;2023-04-16T02:58:09;94051.19;;;14.49;45.33
6393;BME280;3229;42.674;23.282;2023-04-16T03:00:37;94048.75;;;14.48;45.23
6393;BME280;3229;42.674;23.282;2023-04-16T03:03:04;94047.16;;;14.47;45.47
6393;BME280;3229;42.674;23.282;2023-04-16T03:05:32;94048.13;;;14.46;45.38
6393;BME280;3229;42.674;23.282;2023-04-16T03:07:59;94050.09;;;14.44;45.45
6393;BME280;3229;42.674;23.282;2023-04-16T03:10:26;94051.88;;;14.43;45.27
6393;BME280;3229;42.674;23.282;2023-04-16T03:12:52;94052.03;;;14.42;45.37
6393;BME280;3229;42.674;23.282;2023-04-16T03:15:19;94049.81;;;14.39;45.61
6393;BME280;3229;42.674;23.282;2023-04-16T03:17:46;94054.00;;;14.40;45.53
6393;BME280;3229;42.674;23.282;2023-04-16T03:20:13;94052.75;;;14.36;45.75
6393;BME280;3229;42.674;23.282;2023-04-16T03:22:42;94062.25;;;14.35;45.45
6393;BME280;3229;42.674;23.282;2023-04-16T03:25:09;94058.69;;;14.36;45.38
6393;BME280;3229;42.674;23.282;2023-04-16T03:27:36;94063.63;;;14.38;45.77
6393;BME280;3229;42.674;23.282;2023-04-16T03:30:05;94063.81;;;14.36;45.55
6393;BME280;3229;42.674;23.282;2023-04-16T03:32:32;94060.47;;;14.36;45.68
6393;BME280;3229;42.674;23.282;2023-04-16T03:34:59;94054.06;;;14.31;45.74
6393;BME280;3229;42.674;23.282;2023-04-16T03:37:25;94069.75;;;14.37;45.77
6393;BME280;3229;42.674;23.282;2023-04-16T03:39:54;94072.34;;;14.37;45.57
6393;BME280;3229;42.674;23.282;2023-04-16T03:42:20;94068.78;;;14.38;45.78
6393;BME280;3229;42.674;23.282;2023-04-16T03:44:47;94068.19;;;14.36;45.85
6393;BME280;3229;42.674;23.282;2023-04-16T03:47:14;94080.06;;;14.37;45.81
6393;BME280;3229;42.674;23.282;2023-04-16T03:49:41;94080.06;;;14.37;45.84
6393;BME280;3229;42.674;23.282;2023-04-16T03:52:08;94075.91;;;14.36;45.87
6393;BME280;3229;42.674;23.282;2023-04-16T03:54:35;94071.53;;;14.36;45.78
6393;BME280;3229;42.674;23.282;2023-04-16T03:57:03;94053.34;;;14.23;45.78
6393;BME280;3229;42.674;23.282;2023-04-16T03:59:30;94075.72;;;14.37;45.71
6393;BME280;3229;42.674;23.282;2023-04-16T04:01:57;94074.13;;;14.36;45.89
6393;BME280;3229;42.674;23.282;2023-04-16T04:04:24;94074.75;;;14.38;45.93
6393;BME280;3229;42.674;23.282;2023-04-16T04:06:50;94076.16;;;14.41;45.89
6393;BME280;3229;42.674;23.282;2023-04-16T04:09:17;94068.09;;;14.44;45.87
6393;BME280;3229;42.674;23.282;2023-04-16T04:11:44;94084.16;;;14.46;45.81
6393;BME280;3229;42.674;23.282;2023-04-16T04:14:12;94081.91;;;14.51;45.85
6393;BME280;3229;42.674;23.282;2023-04-16T04:16:39;94088.28;;;14.55;45.81
6393;BME280;3229;42.674;23.282;2023-04-16T04:19:06;94081.00;;;14.59;45.84
6393;BME280;3229;42.674;23.282;2023-04-16T04:21:33;94084.81;;;14.63;45.75
6393;BME280;3229;42.674;23.282;2023-04-16T04:24:00;94074.00;;;14.52;45.52
6393;BME280;3229;42.674;23.282;2023-04-16T04:26:26;94094.41;;;14.69;45.67
6393;BME280;3229;42.674;23.282;2023-04-16T04:28:53;94068.06;;;14.52;45.84
6393;BME280;3229;42.674;23.282;2023-04-16T04:31:21;94096.59;;;14.72;45.74
6393;BME280;3229;42.674;23.282;2023-04-16T04:33:48;94096.44;;;14.73;45.77
6393;BME280;3229;42.674;23.282;2023-04-16T04:36:15;94098.03;;;14.74;45.75
6393;BME280;3229;42.674;23.282;2023-04-16T04:38:42;94098.50;;;14.78;45.79
6393;BME280;3229;42.674;23.282;2023-04-16T04:41:08;94101.66;;;14.80;45.75
6393;BME280;3229;42.674;23.282;2023-04-16T04:43:35;94098.94;;;14.82;46.00
6393;BME280;3229;42.674;23.282;2023-04-16T04:46:02;94101.94;;;14.85;45.68
6393;BME280;3229;42.674;23.282;2023-04-16T04:48:30;94110.91;;;14.89;45.66
6393;BME280;3229;42.674;23.282;2023-04-16T04:50:57;94104.00;;;14.90;45.77
6393;BME280;3229;42.674;23.282;2023-04-16T04:53:23;94093.25;;;14.86;45.79
6393;BME280;3229;42.674;23.282;2023-04-16T04:55:50;94099.44;;;14.92;45.64
6393;BME280;3229;42.674;23.282;2023-04-16T04:58:17;94107.28;;;14.98;45.52
6393;BME280;3229;42.674;23.282;2023-04-16T05:00:44;94101.69;;;14.95;45.67
6393;BME280;3229;42.674;23.282;2023-04-16T05:03:11;94102.72;;;15.00;45.86
6393;BME280;3229;42.674;23.282;2023-04-16T05:05:39;94109.31;;;15.03;45.67
6393;BME280;3229;42.674;23.282;2023-04-16T05:08:06;94113.91;;;15.08;45.60
6393;BME280;3229;42.674;23.282;2023-04-16T05:10:33;94050.03;;;14.67;45.74
6393;BME280;3229;42.674;23.282;2023-04-16T05:13:00;94112.22;;;15.15;45.59
6393;BME280;3229;42.674;23.282;2023-04-16T05:15:27;94113.44;;;15.19;45.66
6393;BME280;3229;42.674;23.282;2023-04-16T05:17:53;94109.38;;;15.24;45.33
6393;BME280;3229;42.674;23.282;2023-04-16T05:20:21;94114.78;;;15.29;45.53
6393;BME280;3229;42.674;23.282;2023-04-16T05:22:49;94114.22;;;15.34;45.35
6393;BME280;3229;42.674;23.282;2023-04-16T05:25:16;94107.75;;;15.38;45.22
6393;BME280;3229;42.674;23.282;2023-04-16T05:27:43;94111.81;;;15.47;45.09
6393;BME280;3229;42.674;23.282;2023-04-16T05:30:11;94113.28;;;15.56;44.81
6393;BME280;3229;42.674;23.282;2023-04-16T05:32:38;94114.00;;;15.65;44.98
6393;BME280;3229;42.674;23.282;2023-04-16T05:35:06;94106.16;;;15.73;44.94
6393;BME280;3229;42.674;23.282;2023-04-16T05:37:33;94107.06;;;15.87;44.90
6393;BME280;3229;42.674;23.282;2023-04-16T05:40:02;94105.59;;;15.99;44.75
6393;BME280;3229;42.674;23.282;2023-04-16T05:42:28;94066.25;;;15.91;44.81
6393;BME280;3229;42.674;23.282;2023-04-16T05:44:55;94101.56;;;16.18;44.40
6393;BME280;3229;42.674;23.282;2023-04-16T05:47:22;94115.94;;;16.27;44.27
6393;BME280;3229;42.674;23.282;2023-04-16T05:49:49;94110.03;;;16.34;44.14
6393;BME280;3229;42.674;23.282;2023-04-16T05:52:16;94087.97;;;16.31;44.10
6393;BME280;3229;42.674;23.282;2023-04-16T05:54:43;94045.34;;;16.07;44.18
6393;BME280;3229;42.674;23.282;2023-04-16T05:57:12;94112.75;;;16.53;44.18
6393;BME280;3229;42.674;23.282;2023-04-16T05:59:39;94097.25;;;16.53;43.78
6393;BME280;3229;42.674;23.282;2023-04-16T06:02:05;94111.88;;;16.68;44.08
6393;BME280;3229;42.674;23.282;2023-04-16T06:04:32;94108.38;;;16.75;44.03
6393;BME280;3229;42.674;23.282;2023-04-16T06:07:00;94105.03;;;16.82;43.81
6393;BME280;3229;42.674;23.282;2023-04-16T06:09:26;94108.06;;;16.92;43.56
6393;BME280;3229;42.674;23.282;2023-04-16T06:11:53;94106.72;;;17.02;43.69
6393;BME280;3229;42.674;23.282;2023-04-16T06:14:22;94103.41;;;17.15;43.27
6393;BME280;3229;42.674;23.282;2023-04-16T06:16:49;94106.63;;;17.30;43.28
6393;BME280;3229;42.674;23.282;2023-04-16T06:19:15;94113.06;;;17.48;42.98
6393;BME280;3229;42.674;23.282;2023-04-16T06:21:42;94113.13;;;17.68;42.78
6393;BME280;3229;42.674;23.282;2023-04-16T06:24:09;94107.41;;;17.86;42.58
6393;BME280;3229;42.674;23.282;2023-04-16T06:26:36;94109.63;;;18.09;42.35
6393;BME280;3229;42.674;23.282;2023-04-16T06:29:02;94097.91;;;18.19;42.14
6393;BME280;3229;42.674;23.282;2023-04-16T06:31:31;94104.25;;;18.43;42.25
6393;BME280;3229;42.674;23.282;2023-04-16T06:33:58;94091.28;;;18.56;41.89
6393;BME280;3229;42.674;23.282;2023-04-16T06:36:25;94098.50;;;18.74;41.74
6393;BME280;3229;42.674;23.282;2023-04-16T06:38:53;94097.63;;;18.94;41.60
6393;BME280;3229;42.674;23.282;2023-04-16T06:41:20;94100.97;;;19.14;41.46
6393;BME280;3229;42.674;23.282;2023-04-16T06:43:49;94087.56;;;19.24;41.13
6393;BME280;3229;42.674;23.282;2023-04-16T06:46:16;94109.19;;;19.56;41.04
6393;BME280;3229;42.674;23.282;2023-04-16T06:48:44;94104.84;;;19.82;40.84
6393;BME280;3229;42.674;23.282;2023-04-16T06:51:11;94104.91;;;20.07;40.61
6393;BME280;3229;42.674;23.282;2023-04-16T06:53:38;94108.69;;;20.36;40.55
6393;BME280;3229;42.674;23.282;2023-04-16T06:56:07;94101.63;;;20.68;40.29
6393;BME280;3229;42.674;23.282;2023-04-16T06:58:34;94101.59;;;20.93;40.13
6393;BME280;3229;42.674;23.282;2023-04-16T07:01:00;94100.38;;;21.14;39.82
6393;BME280;3229;42.674;23.282;2023-04-16T07:03:28;94092.19;;;21.28;39.73
6393;BME280;3229;42.674;23.282;2023-04-16T07:05:56;94095.69;;;21.41;39.59
6393;BME280;3229;42.674;23.282;2023-04-16T07:08:23;94105.91;;;21.54;39.53
6393;BME280;3229;42.674;23.282;2023-04-16T07:10:50;94108.03;;;21.64;39.35
6393;BME280;3229;42.674;23.282;2023-04-16T07:13:18;94105.69;;;21.74;39.25
6393;BME280;3229;42.674;23.282;2023-04-16T07:15:45;94102.75;;;21.82;39.16
6393;BME280;3229;42.674;23.282;2023-04-16T07:18:12;94109.94;;;21.98;38.96
6393;BME280;3229;42.674;23.282;2023-04-16T07:20:39;94107.75;;;22.14;38.81
6393;BME280;3229;42.674;23.282;2023-04-16T07:23:07;94098.50;;;22.29;38.58
6393;BME280;3229;42.674;23.282;2023-04-16T07:25:34;94049.50;;;22.08;38.41
6393;BME280;3229;42.674;23.282;2023-04-16T07:28:01;94108.38;;;22.63;38.38
6393;BME280;3229;42.674;23.282;2023-04-16T07:30:28;94105.56;;;22.76;38.23
6393;BME280;3229;42.674;23.282;2023-04-16T07:32:58;94111.34;;;22.90;38.17
6393;BME280;3229;42.674;23.282;2023-04-16T07:35:25;94106.94;;;23.02;37.92
6393;BME280;3229;42.674;23.282;2023-04-16T07:37:52;94095.56;;;23.20;37.82
6393;BME280;3229;42.674;23.282;2023-04-16T07:40:20;94097.53;;;23.41;37.75
6393;BME280;3229;42.674;23.282;2023-04-16T07:42:47;94098.06;;;23.67;37.05
6393;BME280;3229;42.674;23.282;2023-04-16T07:45:14;94109.75;;;23.93;37.17
6393;BME280;3229;42.674;23.282;2023-04-16T07:47:41;94110.41;;;24.17;37.00
6393;BME280;3229;42.674;23.282;2023-04-16T07:50:08;94105.88;;;24.41;36.79
6393;BME280;3229;42.674;23.282;2023-04-16T07:52:35;94104.59;;;24.60;36.43
6393;BME280;3229;42.674;23.282;2023-04-16T07:55:06;94101.72;;;24.78;36.39
6393;BME280;3229;42.674;23.282;2023-04-16T07:57:34;94100.66;;;24.96;36.22
6393;BME280;3229;42.674;23.282;2023-04-16T08:00:01;94094.84;;;25.11;36.11
6393;BME280;3229;42.674;23.282;2023-04-16T08:02:29;94103.50;;;25.34;35.92
6393;BME280;3229;42.674;23.282;2023-04-16T08:04:56;94103.06;;;25.64;35.47
6393;BME280;3229;42.674;23.282;2023-04-16T08:07:23;94107.38;;;25.97;35.35
6393;BME280;3229;42.674;23.282;2023-04-16T08:09:51;94103.53;;;26.37;35.39
6393;BME280;3229;42.674;23.282;2023-04-16T08:12:18;94101.50;;;26.81;34.94
6393;BME280;3229;42.674;23.282;2023-04-16T08:14:46;94098.34;;;27.16;34.97
6393;BME280;3229;42.674;23.282;2023-04-16T08:17:14;94015.28;;;27.00;34.74
6393;BME280;3229;42.674;23.282;2023-04-16T08:19:41;94103.63;;;27.89;34.16
6393;BME280;3229;42.674;23.282;2023-04-16T08:22:08;94106.00;;;28.26;33.93
6393;BME280;3229;42.674;23.282;2023-04-16T08:24:35;94097.91;;;28.48;34.13
6393;BME280;3229;42.674;23.282;2023-04-16T08:27:01;94098.44;;;28.50;34.06
6393;BME280;3229;42.674;23.282;2023-04-16T08:29:28;94083.19;;;28.42;34.12
6393;BME280;3229;42.674;23.282;2023-04-16T08:31:57;94085.75;;;28.32;33.76
6393;BME280;3229;42.674;23.282;2023-04-16T08:34:24;94094.19;;;28.29;34.20
6393;BME280;3229;42.674;23.282;2023-04-16T08:36:51;94087.88;;;28.20;34.11
6393;BME280;3229;42.674;23.282;2023-04-16T08:39:18;94088.63;;;28.10;33.83
6393;BME280;3229;42.674;23.282;2023-04-16T08:41:45;94081.25;;;28.02;34.10
6393;BME280;3229;42.674;23.282;2023-04-16T08:44:18;94083.13;;;28.01;33.60
6393;BME280;3229;42.674;23.282;2023-04-16T08:46:46;94075.50;;;28.10;33.67
6393;BME280;3229;42.674;23.282;2023-04-16T08:49:16;94075.25;;;28.22;33.53
6393;BME280;3229;42.674;23.282;2023-04-16T08:51:48;94077.91;;;28.37;33.22
6393;BME280;3229;42.674;23.282;2023-04-16T08:54:23;94077.91;;;28.53;32.88
6393;BME280;3229;42.674;23.282;2023-04-16T08:56:52;94078.69;;;28.63;32.90
6393;BME280;3229;42.674;23.282;2023-04-16T08:59:19;94061.06;;;28.54;32.57
6393;BME280;3229;42.674;23.282;2023-04-16T09:01:47;94070.78;;;28.53;33.02
6393;BME280;3229;42.674;23.282;2023-04-16T09:04:16;94066.34;;;28.38;32.96
6393;BME280;3229;42.674;23.282;2023-04-16T09:06:43;94063.41;;;28.19;32.81
6393;BME280;3229;42.674;23.282;2023-04-16T09:09:11;94060.22;;;27.97;32.93
6393;BME280;3229;42.674;23.282;2023-04-16T09:11:38;94058.91;;;27.74;33.11
6393;BME280;3229;42.674;23.282;2023-04-16T09:14:08;94064.06;;;27.54;32.69
6393;BME280;3229;42.674;23.282;2023-04-16T09:16:36;94063.19;;;27.33;33.17
6393;BME280;3229;42.674;23.282;2023-04-16T09:19:03;94067.63;;;27.17;33.13
6393;BME280;3229;42.674;23.282;2023-04-16T09:21:32;94050.16;;;26.95;33.07
6393;BME280;3229;42.674;23.282;2023-04-16T09:23:59;94059.31;;;26.93;33.45
6393;BME280;3229;42.674;23.282;2023-04-16T09:26:26;94061.41;;;26.86;33.09
6393;BME280;3229;42.674;23.282;2023-04-16T09:28:53;94058.72;;;26.75;33.34
6393;BME280;3229;42.674;23.282;2023-04-16T09:31:20;94057.88;;;26.65;33.44
6393;BME280;3229;42.674;23.282;2023-04-16T09:34:00;94062.81;;;26.56;33.15
6393;BME280;3229;42.674;23.282;2023-04-16T09:36:27;94058.53;;;26.45;33.49
6393;BME280;3229;42.674;23.282;2023-04-16T09:38:57;94063.00;;;26.49;33.08
6393;BME280;3229;42.674;23.282;2023-04-16T09:41:25;94052.78;;;26.48;33.22
6393;BME280;3229;42.674;23.282;2023-04-16T09:43:53;94056.19;;;26.48;33.17
6393;BME280;3229;42.674;23.282;2023-04-16T09:46:24;94054.38;;;26.54;33.08
6393;BME280;3229;42.674;23.282;2023-04-16T09:48:55;94051.00;;;26.59;33.06
6393;BME280;3229;42.674;23.282;2023-04-16T09:51:22;94047.63;;;26.68;33.09
6393;BME280;3229;42.674;23.282;2023-04-16T09:53:51;94045.31;;;26.72;33.04
6393;BME280;3229;42.674;23.282;2023-04-16T09:56:22;94045.00;;;26.68;32.91
6393;BME280;3229;42.674;23.282;2023-04-16T09:58:49;94042.91;;;26.60;33.01
6393;BME280;3229;42.674;23.282;2023-04-16T10:01:17;94037.56;;;26.50;33.06
6393;BME280;3229;42.674;23.282;2023-04-16T10:03:48;94036.13;;;26.37;33.13
6393;BME280;3229;42.674;23.282;2023-04-16T10:06:16;94024.22;;;26.19;33.19
6393;BME280;3229;42.674;23.282;2023-04-16T10:08:45;94031.00;;;26.15;33.15
6393;BME280;3229;42.674;23.282;2023-04-16T10:11:12;94028.84;;;26.07;33.12
6393;BME280;3229;42.674;23.282;2023-04-16T10:13:41;94029.06;;;26.00;33.20
6393;BME280;3229;42.674;23.282;2023-04-16T10:16:08;94027.69;;;25.93;33.66
6393;BME280;3229;42.674;23.282;2023-04-16T10:18:36;94026.84;;;25.87;33.24
6393;BME280;3229;42.674;23.282;2023-04-16T10:21:04;94003.09;;;25.72;33.36
6393;BME280;3229;42.674;23.282;2023-04-16T10:23:31;94026.25;;;25.80;33.22
6393;BME280;3229;42.674;23.282;2023-04-16T10:25:59;94020.50;;;25.78;33.36
6393;BME280;3229;42.674;23.282;2023-04-16T10:28:26;94019.38;;;25.74;33.56
6393;BME280;3229;42.674;23.282;2023-04-16T10:30:56;94014.13;;;25.74;33.56
6393;BME280;3229;42.674;23.282;2023-04-16T10:33:25;94015.97;;;25.73;33.58
6393;BME280;3229;42.674;23.282;2023-04-16T10:36:06;94008.09;;;25.73;33.68
6393;BME280;3229;42.674;23.282;2023-04-16T10:38:33;94004.19;;;25.76;33.34
6393;BME280;3229;42.674;23.282;2023-04-16T10:41:02;94001.91;;;25.80;33.40
6393;BME280;3229;42.674;23.282;2023-04-16T10:43:30;93991.41;;;25.80;33.32
6393;BME280;3229;42.674;23.282;2023-04-16T10:46:16;93996.94;;;25.83;33.15
6393;BME280;3229;42.674;23.282;2023-04-16T10:48:43;93923.94;;;25.33;33.36
6393;BME280;3229;42.674;23.282;2023-04-16T10:51:23;94000.66;;;25.87;33.45
6393;BME280;3229;42.674;23.282;2023-04-16T10:53:50;93979.59;;;25.77;33.34
6393;BME280;3229;42.674;23.282;2023-04-16T10:56:22;93956.19;;;25.65;33.31
6393;BME280;3229;42.674;23.282;2023-04-16T10:58:49;93942.97;;;25.55;33.26
6393;BME280;3229;42.674;23.282;2023-04-16T11:01:17;93995.41;;;25.87;33.04
6393;BME280;3229;42.674;23.282;2023-04-16T11:03:45;93998.81;;;25.88;33.12
6393;BME280;3229;42.674;23.282;2023-04-16T11:06:13;93996.44;;;25.86;33.44
6393;BME280;3229;42.674;23.282;2023-04-16T11:08:43;93983.34;;;25.86;33.25
6393;BME280;3229;42.674;23.282;2023-04-16T11:11:10;93990.22;;;25.92;32.89
6393;BME280;3229;42.674;23.282;2023-04-16T11:13:37;93974.25;;;25.99;33.00
6393;BME280;3229;42.674;23.282;2023-04-16T11:16:04;93981.63;;;26.02;32.79
6393;BME280;3229;42.674;23.282;2023-04-16T11:18:34;93981.63;;;26.02;33.05
6393;BME280;3229;42.674;23.282;2023-04-16T11:21:01;93970.06;;;25.98;33.09
6393;BME280;3229;42.674;23.282;2023-04-16T11:23:28;93954.50;;;25.86;33.18
6393;BME280;3229;42.674;23.282;2023-04-16T11:25:54;93972.38;;;25.89;33.11
6393;BME280;3229;42.674;23.282;2023-04-16T11:28:32;93950.19;;;25.70;32.99
6393;BME280;3229;42.674;23.282;2023-04-16T11:31:09;93850.66;;;25.06;33.20
6393;BME280;3229;42.674;23.282;2023-04-16T11:33:38;93968.88;;;25.79;33.14
6393;BME280;3229;42.674;23.282;2023-04-16T11:36:05;93954.41;;;25.76;33.43
6393;BME280;3229;42.674;23.282;2023-04-16T11:38:36;93956.75;;;25.72;33.35
6393;BME280;3229;42.674;23.282;2023-04-16T11:41:03;93950.94;;;25.65;33.27
6393;BME280;3229;42.674;23.282;2023-04-16T11:43:30;93950.41;;;25.68;33.43
6393;BME280;3229;42.674;23.282;2023-04-16T11:45:58;93953.03;;;25.68;33.47
6393;BME280;3229;42.674;23.282;2023-04-16T11:48:46;93937.59;;;25.67;33.47
6393;BME280;3229;42.674;23.282;2023-04-16T11:51:13;93941.75;;;25.63;33.26
6393;BME280;3229;42.674;23.282;2023-04-16T11:53:45;93936.47;;;25.58;33.57
6393;BME280;3229;42.674;23.282;2023-04-16T11:56:13;93933.50;;;25.49;33.43
6393;BME280;3229;42.674;23.282;2023-04-16T11:58:42;93934.50;;;25.43;33.62
6393;BME280;3229;42.674;23.282;2023-04-16T12:01:09;93918.41;;;25.29;33.83
6393;BME280;3229;42.674;23.282;2023-04-16T12:03:37;93927.38;;;25.38;33.73
6393;BME280;3229;42.674;23.282;2023-04-16T12:06:08;93914.03;;;25.35;33.59
6393;BME280;3229;42.674;23.282;2023-04-16T12:08:36;93915.66;;;25.46;33.46
6393;BME280;3229;42.674;23.282;2023-04-16T12:11:03;93904.22;;;25.52;33.38
6393;BME280;3229;42.674;23.282;2023-04-16T12:13:29;93902.72;;;25.61;33.61
6393;BME280;3229;42.674;23.282;2023-04-16T12:16:15;93894.94;;;25.71;33.35
6393;BME280;3229;42.674;23.282;2023-04-16T12:18:57;93899.25;;;25.83;33.25
6393;BME280;3229;42.674;23.282;2023-04-16T12:21:35;93900.34;;;25.92;33.31
6393;BME280;3229;42.674;23.282;2023-04-16T12:24:02;93898.53;;;25.97;33.15
6393;BME280;3229;42.674;23.282;2023-04-16T12:26:41;93904.34;;;26.05;33.58
6393;BME280;3229;42.674;23.282;2023-04-16T12:29:18;93853.63;;;25.79;33.30
6393;BME280;3229;42.674;23.282;2023-04-16T12:31:46;93892.31;;;26.09;33.31
6393;BME280;3229;42.674;23.282;2023-04-16T12:34:13;93864.94;;;25.89;33.43
6393;BME280;3229;42.674;23.282;2023-04-16T12:36:43;93893.59;;;26.01;33.54
6393;BME280;3229;42.674;23.282;2023-04-16T12:39:11;93894.56;;;25.90;33.25
6393;BME280;3229;42.674;23.282;2023-04-16T12:41:39;93888.69;;;25.77;33.54
6393;BME280;3229;42.674;23.282;2023-04-16T12:44:07;93880.13;;;25.55;33.53
6393;BME280;3229;42.674;23.282;2023-04-16T12:46:37;93857.41;;;25.28;33.63
6393;BME280;3229;42.674;23.282;2023-04-16T12:49:04;93875.44;;;25.25;33.69
6393;BME280;3229;42.674;23.282;2023-04-16T12:51:31;93887.69;;;25.19;33.95
6393;BME280;3229;42.674;23.282;2023-04-16T12:54:02;93887.75;;;25.02;34.19
6393;BME280;3229;42.674;23.282;2023-04-16T12:56:29;93889.69;;;24.85;34.33
6393;BME280;3229;42.674;23.282;2023-04-16T12:58:56;93891.34;;;24.69;34.53
6393;BME280;3229;42.674;23.282;2023-04-16T13:01:23;93883.59;;;24.52;34.74
6393;BME280;3229;42.674;23.282;2023-04-16T13:03:50;93876.09;;;24.39;34.77
6393;BME280;3229;42.674;23.282;2023-04-16T13:06:17;93880.63;;;24.27;34.75
6393;BME280;3229;42.674;23.282;2023-04-16T13:08:44;93873.69;;;24.16;35.07
6393;BME280;3229;42.674;23.282;2023-04-16T13:11:12;93869.91;;;24.07;35.05
6393;BME280;3229;42.674;23.282;2023-04-16T13:13:40;93861.69;;;23.98;35.13